createdAt,value
2022-10-16T00:02:11.823Z,100767.25
2022-10-16T00:07:36.621Z,100746.97
2022-10-16T00:13:00.005Z,100757.59
2022-10-16T00:18:23.222Z,100754.78
2022-10-16T00:23:48.228Z,100747.75
2022-10-16T00:29:11.549Z,100761.06
2022-10-16T00:34:34.688Z,100763.59
2022-10-16T00:39:59.114Z,100744.97
2022-10-16T00:45:22.197Z,100743.50
2022-10-16T00:50:45.263Z,100729.72
2022-10-16T00:56:09.948Z,100741.41
2022-10-16T01:01:33.053Z,100744.28
2022-10-16T01:07:04.305Z,100748.28
2022-10-16T01:12:38.681Z,100752.00
2022-10-16T01:18:04.788Z,100757.59
2022-10-16T01:23:40.683Z,100736.91
2022-10-16T01:29:08.733Z,100756.78
2022-10-16T01:34:35.743Z,100751.47
2022-10-16T01:40:01.038Z,100750.44
2022-10-16T01:45:25.498Z,100760.78
2022-10-16T01:50:54.601Z,100771.16
2022-10-16T01:56:19.549Z,100762.16
2022-10-16T02:01:47.801Z,100781.50
2022-10-16T02:07:11.126Z,100769.16
2022-10-16T02:12:35.331Z,100778.81
2022-10-16T02:17:59.716Z,100790.03
2022-10-16T02:23:35.711Z,100787.31
2022-10-16T02:29:02.913Z,100793.69
2022-10-16T02:34:27.735Z,100792.63
2022-10-16T02:39:50.890Z,100783.06
2022-10-16T02:45:13.982Z,100802.25
2022-10-16T02:50:38.448Z,100807.56
2022-10-16T02:56:01.496Z,100808.16
2022-10-16T03:01:24.879Z,100813.41
2022-10-16T03:06:49.305Z,100816.41
2022-10-16T03:12:13.009Z,100807.97
2022-10-16T03:17:36.078Z,100828.00
2022-10-16T03:23:00.569Z,100840.91
2022-10-16T03:28:23.733Z,100846.16
2022-10-16T03:33:46.851Z,100844.41
2022-10-16T03:39:11.358Z,100847.16
2022-10-16T03:44:34.398Z,100853.53
2022-10-16T03:49:57.859Z,100831.41
2022-10-16T03:55:22.383Z,100851.66
2022-10-16T04:00:46.330Z,100850.81
2022-10-16T04:06:09.918Z,100867.56
2022-10-16T04:11:34.298Z,100869.06
2022-10-16T04:16:57.306Z,100884.22
2022-10-16T04:22:20.441Z,100884.91
2022-10-16T04:27:46.139Z,100887.53
2022-10-16T04:33:10.774Z,100897.22
2022-10-16T04:38:34.119Z,100893.41
2022-10-16T04:43:58.496Z,100897.91
2022-10-16T04:49:21.684Z,100906.22
2022-10-16T04:54:46.067Z,100901.66
2022-10-16T05:00:12.202Z,100894.03
2022-10-16T05:05:35.349Z,100918.63
2022-10-16T05:10:58.323Z,100931.38
2022-10-16T05:16:22.725Z,100926.97
2022-10-16T05:21:45.745Z,100922.03
2022-10-16T05:27:08.969Z,100932.63
2022-10-16T05:32:33.389Z,100922.88
2022-10-16T05:37:56.469Z,100941.34
2022-10-16T05:43:19.530Z,100942.16
2022-10-16T05:48:44.301Z,100941.34
2022-10-16T05:54:07.314Z,100922.66
2022-10-16T05:59:30.491Z,100934.56
2022-10-16T06:04:55.691Z,100956.34
2022-10-16T06:10:18.770Z,100966.94
2022-10-16T06:15:43.314Z,100979.03
2022-10-16T06:21:11.701Z,100982.06
2022-10-16T06:26:34.765Z,100972.59
2022-10-16T06:31:57.896Z,100982.28
2022-10-16T06:37:23.086Z,100992.19
2022-10-16T06:42:46.176Z,101001.03
2022-10-16T06:48:09.320Z,101020.63
2022-10-16T06:53:40.022Z,101023.78
2022-10-16T06:59:12.315Z,101045.50
2022-10-16T07:04:35.347Z,101062.00
2022-10-16T07:09:59.716Z,101074.66
2022-10-16T07:15:22.736Z,101084.78
2022-10-16T07:20:45.795Z,101095.28
2022-10-16T07:26:11.447Z,101115.50
2022-10-16T07:31:34.658Z,101121.34
2022-10-16T07:36:57.768Z,101122.91
2022-10-16T07:42:22.185Z,101137.56
2022-10-16T07:47:45.266Z,101142.09
2022-10-16T07:53:08.344Z,101152.78
2022-10-16T07:58:33.104Z,101151.63
2022-10-16T08:03:56.228Z,101161.88
2022-10-16T08:09:19.375Z,101174.69
2022-10-16T08:14:47.020Z,101182.75
2022-10-16T08:20:12.832Z,101184.53
2022-10-16T08:25:37.123Z,101186.88
2022-10-16T08:31:09.248Z,101193.06
2022-10-16T08:36:32.383Z,101205.84
2022-10-16T08:42:15.271Z,101215.19
2022-10-16T08:47:47.652Z,101219.66
2022-10-16T08:53:17.146Z,101241.06
2022-10-16T08:58:40.263Z,101246.09
2022-10-16T09:04:22.235Z,101250.97
2022-10-16T09:09:58.586Z,101252.66
2022-10-16T09:15:27.347Z,101266.06
2022-10-16T09:20:57.622Z,101274.81
2022-10-16T09:31:46.942Z,101284.91
2022-10-16T09:37:14.684Z,101292.56
2022-10-16T09:42:38.787Z,101290.19
2022-10-16T09:48:03.805Z,101287.09
2022-10-16T09:53:39.584Z,101284.06
2022-10-16T09:59:05.491Z,101293.00
2022-10-16T10:04:40.062Z,101291.50
2022-10-16T10:10:06.919Z,101296.09
2022-10-16T10:15:35.324Z,101315.97
2022-10-16T10:21:02.069Z,101320.53
2022-10-16T10:26:29.658Z,101336.75
2022-10-16T10:32:00.441Z,101346.78
2022-10-16T10:37:37.055Z,101358.84
2022-10-16T10:43:05.293Z,101366.31
2022-10-16T10:48:45.023Z,101383.00
2022-10-16T10:54:16.126Z,101385.88
2022-10-16T10:59:51.113Z,101386.50
2022-10-16T11:05:40.439Z,101396.16
2022-10-16T11:11:06.965Z,101394.41
2022-10-16T11:16:34.125Z,101395.72
2022-10-16T11:22:01.439Z,101415.63
2022-10-16T11:27:38.247Z,101424.53
2022-10-16T11:33:26.752Z,101414.34
2022-10-16T11:38:54.937Z,101438.56
2022-10-16T11:44:38.221Z,101442.59
2022-10-16T11:50:06.780Z,101445.75
2022-10-16T11:55:34.075Z,101445.81
2022-10-16T12:01:02.787Z,101449.38
2022-10-16T12:06:33.745Z,101452.25
2022-10-16T12:11:58.103Z,101449.50
2022-10-16T12:17:29.539Z,101446.97
2022-10-16T12:22:56.501Z,101460.78
2022-10-16T12:28:23.023Z,101463.03
2022-10-16T12:33:57.991Z,101465.66
2022-10-16T12:39:24.728Z,101467.31
2022-10-16T12:44:48.192Z,101484.81
2022-10-16T12:50:27.467Z,101475.88
2022-10-16T12:56:04.234Z,101469.28
2022-10-16T13:01:35.409Z,101482.53
2022-10-16T13:07:04.783Z,101484.63
2022-10-16T13:12:46.507Z,101491.31
2022-10-16T13:18:15.247Z,101487.16
2022-10-16T13:29:15.867Z,101493.16
2022-10-16T13:34:46.014Z,101504.44
2022-10-16T13:40:20.969Z,101506.09
2022-10-16T13:45:54.965Z,101518.34
2022-10-16T13:51:20.476Z,101520.41
2022-10-16T13:56:43.749Z,101539.84
2022-10-16T14:02:20.087Z,101553.06
2022-10-16T14:13:33.655Z,101544.03
2022-10-16T14:19:02.225Z,101538.56
2022-10-16T14:24:29.370Z,101562.59
2022-10-16T14:29:52.567Z,101559.03
2022-10-16T14:35:27.058Z,101544.41
2022-10-16T14:40:51.492Z,101560.19
2022-10-16T14:46:15.916Z,101559.66
2022-10-16T14:51:41.946Z,101556.84
2022-10-16T14:57:05.173Z,101565.41
2022-10-16T15:02:31.243Z,101562.19
2022-10-16T15:07:56.671Z,101559.13
2022-10-16T15:13:19.899Z,101571.41
2022-10-16T15:18:43.080Z,101561.03
2022-10-16T15:24:11.871Z,101574.03
2022-10-16T15:29:35.946Z,101570.66
2022-10-16T15:34:59.006Z,101574.22
2022-10-16T15:40:24.586Z,101569.16
2022-10-16T15:46:01.383Z,101577.72
2022-10-16T15:51:24.560Z,101583.56
2022-10-16T15:56:49.071Z,101590.97
2022-10-16T16:02:12.481Z,101588.88
2022-10-16T16:07:36.632Z,101594.50
2022-10-16T16:13:01.029Z,101587.97
2022-10-16T16:18:24.786Z,101582.97
2022-10-16T16:23:47.908Z,101601.03
2022-10-16T16:29:14.336Z,101598.19
2022-10-16T16:34:37.531Z,101613.31
2022-10-16T16:40:00.639Z,101612.78
2022-10-16T16:45:29.526Z,101621.59
2022-10-16T16:50:52.719Z,101617.44
2022-10-16T16:56:16.203Z,101611.59
2022-10-16T17:01:40.753Z,101608.91
2022-10-16T17:07:03.956Z,101620.28
2022-10-16T17:12:27.056Z,101637.16
2022-10-16T17:17:51.532Z,101644.19
2022-10-16T17:23:14.906Z,101653.84
2022-10-16T17:28:38.267Z,101660.06
2022-10-16T17:34:04.754Z,101667.16
2022-10-16T17:39:27.909Z,101669.78
2022-10-16T17:44:50.935Z,101658.50
2022-10-16T17:50:15.849Z,101654.09
2022-10-16T17:55:40.163Z,101668.06
2022-10-16T18:01:03.891Z,101672.66
2022-10-16T18:06:29.015Z,101681.69
2022-10-16T18:11:59.616Z,101673.03
2022-10-16T18:17:22.795Z,101669.69
2022-10-16T18:22:47.259Z,101673.28
2022-10-16T18:28:10.330Z,101680.31
2022-10-16T18:33:33.899Z,101682.34
2022-10-16T18:38:58.608Z,101672.16
2022-10-16T18:44:21.692Z,101666.63
2022-10-16T18:49:46.683Z,101677.81
2022-10-16T18:55:12.071Z,101697.72
2022-10-16T19:00:35.174Z,101702.88
2022-10-16T19:06:01.187Z,101713.44
2022-10-16T19:11:27.151Z,101709.91
2022-10-16T19:16:50.251Z,101695.03
2022-10-16T19:22:17.150Z,101679.72
2022-10-16T19:27:41.681Z,101693.19
2022-10-16T19:33:05.198Z,101683.53
2022-10-16T19:38:28.279Z,101685.31
2022-10-16T19:43:53.339Z,101675.50
2022-10-16T19:49:21.174Z,101678.13
2022-10-16T19:54:44.267Z,101656.16
2022-10-16T20:00:11.453Z,101650.16
2022-10-16T20:05:34.567Z,101637.13
2022-10-16T20:10:57.661Z,101637.97
2022-10-16T20:16:22.293Z,101637.97
2022-10-16T20:21:45.497Z,101645.69
2022-10-16T20:27:08.703Z,101655.19
2022-10-16T20:32:33.119Z,101655.16
2022-10-16T20:37:56.392Z,101681.16
2022-10-16T20:43:21.308Z,101699.34
2022-10-16T20:48:46.896Z,101701.00
2022-10-16T20:54:12.461Z,101693.97
2022-10-16T20:59:35.736Z,101695.91
2022-10-16T21:05:00.088Z,101679.81
2022-10-16T21:10:23.239Z,101673.06
2022-10-16T21:15:46.274Z,101662.66
2022-10-16T21:21:10.985Z,101667.00
2022-10-16T21:26:34.560Z,101666.03
2022-10-16T21:31:57.688Z,101668.84
2022-10-16T21:37:22.136Z,101646.47
2022-10-16T21:42:45.190Z,101645.66
2022-10-16T21:48:08.325Z,101656.13
2022-10-16T21:53:33.164Z,101655.44
2022-10-16T21:58:56.308Z,101633.81
2022-10-16T22:04:19.361Z,101624.25
2022-10-16T22:09:44.081Z,101611.41
2022-10-16T22:15:08.428Z,101642.59
2022-10-16T22:20:31.458Z,101640.75
2022-10-16T22:26:00.063Z,101645.78
2022-10-16T22:31:23.877Z,101637.09
2022-10-16T22:36:49.715Z,101624.25
2022-10-16T22:42:14.217Z,101617.41
2022-10-16T22:47:37.478Z,101626.94
2022-10-16T22:53:00.677Z,101617.59
2022-10-16T22:58:25.143Z,101622.84
2022-10-16T23:03:48.266Z,101620.22
2022-10-16T23:09:11.520Z,101608.84
2022-10-16T23:14:35.964Z,101626.22
2022-10-16T23:19:59.048Z,101616.38
2022-10-16T23:25:22.148Z,101625.03
2022-10-16T23:30:46.572Z,101616.16
2022-10-16T23:36:11.354Z,101620.63
2022-10-16T23:41:34.402Z,101600.38
2022-10-16T23:46:58.893Z,101607.38
2022-10-16T23:52:21.970Z,101592.50
2022-10-16T23:57:45.486Z,101596.09
